createdAt,value
2018-10-01T00:01:43.770Z,12.50
2018-10-01T00:04:11.861Z,12.50
2018-10-01T00:06:39.913Z,12.50
2018-10-01T00:09:08.556Z,12.50
2018-10-01T00:11:36.613Z,12.50
2018-10-01T00:14:04.695Z,12.40
2018-10-01T00:16:32.783Z,12.40
2018-10-01T00:19:00.846Z,12.50
2018-10-01T00:21:34.517Z,12.40
2018-10-01T00:24:02.584Z,12.30
2018-10-01T00:26:30.657Z,12.30
2018-10-01T00:28:58.737Z,12.30
2018-10-01T00:31:26.801Z,12.30
2018-10-01T00:33:54.885Z,12.30
2018-10-01T00:36:22.965Z,12.30
2018-10-01T00:38:51.028Z,12.30
2018-10-01T00:41:19.112Z,12.20
2018-10-01T00:43:47.179Z,12.20
2018-10-01T00:46:15.253Z,12.20
2018-10-01T00:48:43.334Z,12.30
2018-10-01T00:51:11.392Z,12.20
2018-10-01T00:53:39.458Z,12.30
2018-10-01T00:56:07.526Z,12.30
2018-10-01T00:58:35.607Z,12.30
2018-10-01T01:01:03.689Z,12.30
2018-10-01T01:03:31.753Z,12.40
2018-10-01T01:05:59.818Z,12.40
2018-10-01T01:08:27.913Z,12.50
2018-10-01T01:10:55.957Z,12.40
2018-10-01T01:13:24.013Z,12.50
2018-10-01T01:15:52.101Z,12.50
2018-10-01T01:18:20.173Z,12.50
2018-10-01T01:20:48.313Z,12.50
2018-10-01T01:23:16.377Z,12.50
2018-10-01T01:25:44.441Z,12.50
2018-10-01T01:28:12.561Z,12.50
2018-10-01T01:30:40.633Z,12.50
2018-10-01T01:33:08.709Z,12.40
2018-10-01T01:35:36.785Z,12.40
2018-10-01T01:38:05.083Z,12.30
2018-10-01T01:40:33.145Z,12.30
2018-10-01T01:43:01.219Z,12.20
2018-10-01T01:45:29.297Z,12.10
2018-10-01T01:47:57.363Z,12.10
2018-10-01T01:50:25.437Z,12.10
2018-10-01T01:52:53.606Z,12.10
2018-10-01T01:55:21.730Z,12.10
2018-10-01T01:57:49.794Z,12.10
2018-10-01T02:00:17.878Z,12.00
2018-10-01T02:02:45.989Z,12.00
2018-10-01T02:05:14.079Z,12.00
2018-10-01T02:07:42.201Z,11.90
2018-10-01T02:10:10.282Z,11.80
2018-10-01T02:12:38.349Z,11.80
2018-10-01T02:15:06.439Z,11.70
2018-10-01T02:17:36.488Z,11.60
2018-10-01T02:20:04.662Z,11.70
2018-10-01T02:22:32.730Z,11.60
2018-10-01T02:25:00.831Z,11.60
2018-10-01T02:27:28.885Z,11.50
2018-10-01T02:29:56.953Z,11.50
2018-10-01T02:32:25.052Z,11.40
2018-10-01T02:34:53.121Z,11.40
2018-10-01T02:37:21.193Z,11.30
2018-10-01T02:39:49.279Z,11.30
2018-10-01T02:42:17.325Z,11.30
2018-10-01T02:44:45.390Z,11.30
2018-10-01T02:47:13.433Z,11.30
2018-10-01T02:49:41.505Z,11.30
2018-10-01T02:52:14.913Z,11.30
2018-10-01T02:54:42.965Z,11.30
2018-10-01T02:57:11.010Z,11.30
2018-10-01T02:59:39.093Z,11.30
2018-10-01T03:02:07.142Z,11.30
2018-10-01T03:04:35.214Z,11.30
2018-10-01T03:07:03.262Z,11.40
2018-10-01T03:09:31.309Z,11.40
2018-10-01T03:11:59.404Z,11.40
2018-10-01T03:14:27.454Z,11.40
2018-10-01T03:16:55.505Z,11.40
2018-10-01T03:19:23.559Z,11.50
2018-10-01T03:21:51.609Z,11.50
2018-10-01T03:24:19.662Z,11.50
2018-10-01T03:26:47.709Z,11.60
2018-10-01T03:29:15.757Z,11.60
2018-10-01T03:31:43.835Z,11.50
2018-10-01T03:34:11.901Z,11.60
2018-10-01T03:36:39.986Z,11.50
2018-10-01T03:39:09.095Z,11.50
2018-10-01T03:41:37.378Z,11.50
2018-10-01T03:44:05.441Z,11.50
2018-10-01T03:46:33.509Z,11.40
2018-10-01T03:49:01.592Z,11.40
2018-10-01T03:51:29.669Z,11.50
2018-10-01T03:53:57.741Z,11.50
2018-10-01T03:56:25.818Z,11.50
2018-10-01T03:58:53.875Z,11.60
2018-10-01T04:01:21.926Z,11.60
2018-10-01T04:03:50.030Z,11.50
2018-10-01T04:06:18.094Z,11.40
2018-10-01T04:08:46.866Z,11.40
2018-10-01T04:11:14.883Z,11.40
2018-10-01T04:13:42.937Z,11.30
2018-10-01T04:16:11.010Z,11.30
2018-10-01T04:18:39.073Z,11.30
2018-10-01T04:21:07.138Z,11.30
2018-10-01T04:23:35.205Z,11.20
2018-10-01T04:26:03.278Z,11.20
2018-10-01T04:28:31.545Z,11.20
2018-10-01T04:30:59.621Z,11.20
2018-10-01T04:33:27.698Z,11.20
2018-10-01T04:35:55.782Z,11.30
2018-10-01T04:38:23.846Z,11.30
2018-10-01T04:40:52.182Z,11.30
2018-10-01T04:43:20.186Z,11.20
2018-10-01T04:45:48.294Z,11.20
2018-10-01T04:48:16.373Z,11.20
2018-10-01T04:50:44.446Z,11.10
2018-10-01T04:53:12.498Z,11.20
2018-10-01T04:55:40.558Z,11.20
2018-10-01T04:58:08.696Z,11.30
2018-10-01T05:00:36.734Z,11.30
2018-10-01T05:03:05.202Z,11.30
2018-10-01T05:05:33.265Z,11.30
2018-10-01T05:08:01.353Z,11.40
2018-10-01T05:10:29.413Z,11.40
2018-10-01T05:12:57.512Z,11.30
2018-10-01T05:15:25.643Z,11.20
2018-10-01T05:17:54.289Z,11.20
2018-10-01T05:20:22.361Z,11.20
2018-10-01T05:22:50.434Z,11.20
2018-10-01T05:25:18.501Z,11.20
2018-10-01T05:27:46.573Z,11.20
2018-10-01T05:30:14.662Z,11.20
2018-10-01T05:32:42.758Z,11.10
2018-10-01T05:35:11.222Z,11.10
2018-10-01T05:37:40.282Z,11.10
2018-10-01T05:40:08.290Z,11.10
2018-10-01T05:42:36.382Z,11.10
2018-10-01T05:45:04.534Z,11.20
2018-10-01T05:47:32.665Z,11.20
2018-10-01T05:50:00.754Z,11.20
2018-10-01T05:52:28.904Z,11.10
2018-10-01T05:54:57.166Z,11.10
2018-10-01T05:57:25.280Z,11.10
2018-10-01T05:59:53.354Z,11.10
2018-10-01T06:02:21.429Z,11.20
2018-10-01T06:04:49.481Z,11.20
2018-10-01T06:07:17.598Z,11.10
2018-10-01T06:09:45.669Z,11.20
2018-10-01T06:12:15.446Z,11.30
2018-10-01T06:14:43.485Z,11.30
2018-10-01T06:17:11.882Z,11.20
2018-10-01T06:19:40.002Z,11.20
2018-10-01T06:22:08.077Z,11.20
2018-10-01T06:24:36.291Z,11.20
2018-10-01T06:27:04.349Z,11.30
2018-10-01T06:29:32.634Z,11.30
2018-10-01T06:32:00.694Z,11.30
2018-10-01T06:34:28.773Z,11.30
2018-10-01T06:36:56.865Z,11.20
2018-10-01T06:39:24.962Z,11.30
2018-10-01T06:41:53.047Z,11.20
2018-10-01T06:44:21.162Z,11.30
2018-10-01T06:46:49.246Z,11.20
2018-10-01T06:49:17.300Z,11.20
2018-10-01T06:51:45.370Z,11.20
2018-10-01T06:54:13.418Z,11.20
2018-10-01T06:56:41.494Z,11.30
2018-10-01T06:59:09.578Z,11.20
2018-10-01T07:01:37.661Z,11.20
2018-10-01T07:04:05.757Z,11.10
2018-10-01T07:06:33.992Z,11.20
2018-10-01T07:09:02.082Z,11.20
2018-10-01T07:11:30.439Z,11.10
2018-10-01T07:13:58.566Z,11.10
2018-10-01T07:16:26.637Z,11.00
2018-10-01T07:18:54.725Z,11.00
2018-10-01T07:21:22.797Z,11.00
2018-10-01T07:23:50.885Z,10.90
2018-10-01T07:26:18.952Z,10.90
2018-10-01T07:28:47.066Z,11.00
2018-10-01T07:31:15.138Z,11.00
2018-10-01T07:33:43.206Z,11.10
2018-10-01T07:36:11.269Z,11.20
2018-10-01T07:38:39.319Z,11.20
2018-10-01T07:41:07.389Z,11.20
2018-10-01T07:43:35.446Z,11.20
2018-10-01T07:46:03.512Z,11.20
2018-10-01T07:48:31.569Z,11.10
2018-10-01T07:50:59.761Z,11.10
2018-10-01T07:53:27.739Z,11.20
2018-10-01T07:55:55.826Z,11.20
2018-10-01T07:58:23.877Z,11.30
2018-10-01T08:00:51.950Z,11.40
2018-10-01T08:03:20.364Z,11.50
2018-10-01T08:05:48.429Z,11.70
2018-10-01T08:08:16.517Z,11.80
2018-10-01T08:10:44.524Z,11.90
2018-10-01T08:13:12.573Z,12.10
2018-10-01T08:15:40.620Z,12.10
2018-10-01T08:18:08.677Z,12.20
2018-10-01T08:20:36.809Z,12.20
2018-10-01T08:23:04.774Z,12.30
2018-10-01T08:25:32.805Z,12.20
2018-10-01T08:28:00.850Z,12.20
2018-10-01T08:30:28.899Z,12.20
2018-10-01T08:32:56.963Z,12.10
2018-10-01T08:35:25.063Z,12.00
2018-10-01T08:37:53.122Z,12.20
2018-10-01T08:40:21.221Z,12.20
2018-10-01T08:42:49.304Z,12.20
2018-10-01T08:45:17.357Z,12.20
2018-10-01T08:47:45.700Z,12.40
2018-10-01T08:50:19.818Z,12.50
2018-10-01T08:52:54.450Z,12.50
2018-10-01T08:55:23.041Z,12.40
2018-10-01T08:57:51.085Z,12.40
2018-10-01T09:00:19.173Z,12.30
2018-10-01T09:02:47.318Z,12.20
2018-10-01T09:05:15.467Z,12.20
2018-10-01T09:07:43.483Z,12.20
2018-10-01T09:10:11.548Z,12.30
2018-10-01T09:12:39.625Z,12.30
2018-10-01T09:15:07.710Z,12.30
2018-10-01T09:17:35.837Z,12.40
2018-10-01T09:20:04.058Z,12.50
2018-10-01T09:22:32.058Z,12.60
2018-10-01T09:25:00.243Z,12.60
2018-10-01T09:27:28.326Z,12.70
2018-10-01T09:29:56.428Z,12.80
2018-10-01T09:32:24.495Z,12.60
2018-10-01T09:34:52.589Z,12.40
2018-10-01T09:37:20.645Z,12.40
2018-10-01T09:39:48.705Z,12.40
2018-10-01T09:42:16.841Z,12.40
2018-10-01T09:44:44.867Z,12.40
2018-10-01T09:47:12.934Z,12.40
2018-10-01T09:49:41.014Z,12.50
2018-10-01T09:52:09.113Z,12.60
2018-10-01T09:54:37.185Z,12.90
2018-10-01T09:57:05.325Z,13.10
2018-10-01T09:59:33.414Z,13.20
2018-10-01T10:02:01.522Z,13.30
2018-10-01T10:04:29.649Z,13.30
2018-10-01T10:06:57.658Z,13.30
2018-10-01T10:09:25.723Z,13.30
2018-10-01T10:11:53.789Z,13.20
2018-10-01T10:14:21.855Z,13.30
2018-10-01T10:16:50.106Z,13.30
2018-10-01T10:19:18.002Z,13.40
2018-10-01T10:21:46.061Z,13.50
2018-10-01T10:24:14.121Z,13.50
2018-10-01T10:26:42.487Z,13.40
2018-10-01T10:29:10.677Z,13.50
2018-10-01T10:31:38.737Z,13.50
2018-10-01T10:34:06.884Z,13.50
2018-10-01T10:36:34.885Z,13.50
2018-10-01T10:39:02.958Z,13.70
2018-10-01T10:41:31.043Z,13.70
2018-10-01T10:43:59.138Z,13.60
2018-10-01T10:46:27.171Z,13.50
2018-10-01T10:48:55.236Z,12.90
2018-10-01T10:51:23.294Z,11.30
2018-10-01T10:53:51.364Z,10.40
2018-10-01T10:56:19.420Z,10.10
2018-10-01T10:58:47.477Z,9.80
2018-10-01T11:01:15.517Z,9.60
2018-10-01T11:03:43.564Z,9.50
2018-10-01T11:06:11.610Z,9.50
2018-10-01T11:08:39.803Z,9.50
2018-10-01T11:11:07.753Z,9.50
2018-10-01T11:13:35.776Z,9.50
2018-10-01T11:16:03.841Z,9.50
2018-10-01T11:18:31.885Z,9.50
2018-10-01T11:21:00.036Z,9.50
2018-10-01T11:23:28.010Z,9.50
2018-10-01T11:25:56.051Z,9.50
2018-10-01T11:28:24.097Z,9.50
2018-10-01T11:30:52.171Z,9.50
2018-10-01T11:33:20.674Z,9.70
2018-10-01T11:35:48.708Z,9.90
2018-10-01T11:38:16.781Z,10.00
2018-10-01T11:40:45.886Z,10.00
2018-10-01T11:43:14.010Z,10.00
2018-10-01T11:45:42.156Z,10.00
2018-10-01T11:48:10.194Z,10.00
2018-10-01T11:50:38.310Z,10.00
2018-10-01T11:53:06.865Z,9.90
2018-10-01T11:55:34.967Z,9.90
2018-10-01T11:58:03.903Z,9.90
2018-10-01T12:00:31.990Z,10.00
2018-10-01T12:03:00.126Z,9.90
2018-10-01T12:05:28.154Z,10.00
2018-10-01T12:07:56.230Z,10.00
2018-10-01T12:10:24.320Z,10.20
2018-10-01T12:12:52.374Z,10.20
2018-10-01T12:15:20.472Z,10.30
2018-10-01T12:17:48.513Z,10.50
2018-10-01T12:20:16.643Z,10.60
2018-10-01T12:22:44.702Z,10.70
2018-10-01T12:25:12.785Z,10.90
2018-10-01T12:27:40.920Z,10.90
2018-10-01T12:30:08.986Z,11.00
2018-10-01T12:32:37.094Z,11.00
2018-10-01T12:35:05.731Z,11.00
2018-10-01T12:37:33.789Z,11.10
2018-10-01T12:40:01.880Z,11.30
2018-10-01T12:42:29.953Z,11.40
2018-10-01T12:44:58.210Z,11.40
2018-10-01T12:47:26.227Z,11.40
2018-10-01T12:49:54.317Z,11.50
2018-10-01T12:52:22.389Z,11.60
2018-10-01T12:54:50.439Z,11.60
2018-10-01T12:57:18.646Z,11.50
2018-10-01T12:59:46.614Z,11.70
2018-10-01T13:02:14.702Z,11.90
2018-10-01T13:04:42.781Z,11.90
2018-10-01T13:07:10.869Z,11.90
2018-10-01T13:09:38.942Z,11.80
2018-10-01T13:12:07.027Z,11.90
2018-10-01T13:14:35.189Z,12.00
2018-10-01T13:17:03.293Z,12.00
2018-10-01T13:19:31.373Z,11.90
2018-10-01T13:21:59.462Z,11.90
2018-10-01T13:24:27.632Z,11.90
2018-10-01T13:26:55.650Z,11.90
2018-10-01T13:29:23.798Z,12.00
2018-10-01T13:31:51.983Z,12.10
2018-10-01T13:34:20.035Z,12.00
2018-10-01T13:36:48.184Z,12.00
2018-10-01T13:39:16.202Z,12.00
2018-10-01T13:41:44.341Z,12.00
2018-10-01T13:44:12.481Z,12.00
2018-10-01T13:46:40.582Z,11.80
2018-10-01T13:49:08.664Z,11.80
2018-10-01T13:51:36.733Z,11.70
2018-10-01T13:54:04.871Z,11.80
2018-10-01T13:56:32.942Z,11.70
2018-10-01T13:59:00.999Z,11.90
2018-10-01T14:01:29.152Z,11.80
2018-10-01T14:03:57.202Z,11.80
2018-10-01T14:06:25.403Z,11.90
2018-10-01T14:08:54.017Z,11.90
2018-10-01T14:11:22.132Z,11.90
2018-10-01T14:13:50.294Z,11.90
2018-10-01T14:16:18.334Z,11.80
2018-10-01T14:18:46.566Z,11.10
2018-10-01T14:21:14.650Z,10.70
2018-10-01T14:23:42.737Z,10.30
2018-10-01T14:26:10.813Z,10.20
2018-10-01T14:28:38.898Z,10.10
2018-10-01T14:31:07.096Z,10.10
2018-10-01T14:33:35.125Z,10.10
2018-10-01T14:36:03.243Z,10.20
2018-10-01T14:38:31.262Z,10.20
2018-10-01T14:40:59.527Z,10.20
2018-10-01T14:43:27.591Z,10.20
2018-10-01T14:45:55.621Z,10.20
2018-10-01T14:48:23.707Z,10.30
2018-10-01T14:50:51.753Z,10.40
2018-10-01T14:53:19.801Z,10.40
2018-10-01T14:55:47.862Z,10.40
2018-10-01T14:58:15.914Z,10.30
2018-10-01T15:00:44.112Z,10.30
2018-10-01T15:03:12.202Z,10.30
2018-10-01T15:05:40.265Z,10.30
2018-10-01T15:08:08.474Z,10.30
2018-10-01T15:10:36.689Z,10.40
2018-10-01T15:13:04.710Z,10.30
2018-10-01T15:15:32.781Z,10.30
2018-10-01T15:18:00.859Z,10.40
2018-10-01T15:20:28.978Z,10.30
2018-10-01T15:22:57.207Z,10.40
2018-10-01T15:25:25.278Z,10.40
2018-10-01T15:27:53.345Z,10.40
2018-10-01T15:30:21.440Z,10.40
2018-10-01T15:32:49.496Z,10.50
2018-10-01T15:35:17.655Z,10.50
2018-10-01T15:37:45.778Z,10.50
2018-10-01T15:40:13.927Z,10.50
2018-10-01T15:42:42.018Z,10.60
2018-10-01T15:45:11.118Z,10.60
2018-10-01T15:47:39.218Z,10.70
2018-10-01T15:50:07.279Z,10.80
2018-10-01T15:52:35.362Z,10.90
2018-10-01T15:55:03.429Z,10.90
2018-10-01T15:57:31.506Z,11.20
2018-10-01T15:59:59.782Z,11.40
2018-10-01T16:02:28.081Z,11.50
2018-10-01T16:04:56.159Z,11.40
2018-10-01T16:07:24.233Z,11.30
2018-10-01T16:09:52.277Z,11.20
2018-10-01T16:12:20.398Z,11.10
2018-10-01T16:14:48.450Z,11.00
2018-10-01T16:17:16.737Z,10.90
2018-10-01T16:19:44.797Z,10.80
2018-10-01T16:22:12.858Z,10.70
2018-10-01T16:24:40.934Z,10.70
2018-10-01T16:27:08.991Z,10.60
2018-10-01T16:29:37.043Z,10.50
2018-10-01T16:32:05.102Z,10.40
2018-10-01T16:34:33.186Z,10.40
2018-10-01T16:37:01.270Z,10.30
2018-10-01T16:39:29.502Z,10.30
2018-10-01T16:41:57.550Z,10.20
2018-10-01T16:44:25.709Z,10.20
2018-10-01T16:46:53.761Z,10.10
2018-10-01T16:49:21.907Z,10.10
2018-10-01T16:51:49.942Z,10.10
2018-10-01T16:54:18.022Z,10.00
2018-10-01T16:56:46.090Z,10.00
2018-10-01T16:59:14.173Z,9.90
2018-10-01T17:01:42.290Z,9.80
2018-10-01T17:04:10.366Z,9.80
2018-10-01T17:06:38.422Z,9.70
2018-10-01T17:09:07.773Z,9.70
2018-10-01T17:11:35.857Z,9.60
2018-10-01T17:14:03.982Z,9.50
2018-10-01T17:16:32.041Z,9.50
2018-10-01T17:19:00.177Z,9.50
2018-10-01T17:21:28.260Z,9.50
2018-10-01T17:23:56.365Z,9.40
2018-10-01T17:26:24.520Z,9.40
2018-10-01T17:28:52.574Z,9.30
2018-10-01T17:31:20.670Z,9.30
2018-10-01T17:33:48.751Z,9.30
2018-10-01T17:36:16.869Z,9.30
2018-10-01T17:38:44.922Z,9.20
2018-10-01T17:41:13.006Z,9.20
2018-10-01T17:43:41.100Z,9.20
2018-10-01T17:46:09.189Z,9.20
2018-10-01T17:48:37.262Z,9.30
2018-10-01T17:51:06.242Z,9.30
2018-10-01T17:53:34.431Z,9.20
2018-10-01T17:56:02.541Z,9.30
2018-10-01T17:58:30.598Z,9.20
2018-10-01T18:00:58.689Z,9.20
2018-10-01T18:03:26.754Z,9.10
2018-10-01T18:05:54.975Z,9.20
2018-10-01T18:08:22.982Z,9.10
2018-10-01T18:10:51.068Z,9.10
2018-10-01T18:13:19.119Z,9.10
2018-10-01T18:15:47.201Z,9.10
2018-10-01T18:18:15.315Z,9.00
2018-10-01T18:20:43.370Z,9.00
2018-10-01T18:23:11.442Z,9.00
2018-10-01T18:25:39.542Z,8.90
2018-10-01T18:28:07.641Z,8.90
2018-10-01T18:30:35.699Z,8.90
2018-10-01T18:33:03.749Z,8.90
2018-10-01T18:35:31.825Z,8.90
2018-10-01T18:37:59.878Z,8.90
2018-10-01T18:40:28.007Z,8.90
2018-10-01T18:42:56.071Z,9.00
2018-10-01T18:45:24.378Z,9.00
2018-10-01T18:47:52.465Z,8.90
2018-10-01T18:50:20.497Z,8.90
2018-10-01T18:52:49.493Z,8.90
2018-10-01T18:55:18.010Z,8.90
2018-10-01T18:57:46.066Z,8.90
2018-10-01T19:00:14.168Z,8.90
2018-10-01T19:02:42.184Z,8.80
2018-10-01T19:05:10.850Z,8.80
2018-10-01T19:07:38.893Z,8.70
2018-10-01T19:10:08.194Z,8.70
2018-10-01T19:12:36.245Z,8.70
2018-10-01T19:15:04.608Z,8.70
2018-10-01T19:17:32.694Z,8.70
2018-10-01T19:20:00.761Z,8.70
2018-10-01T19:22:29.724Z,8.60
2018-10-01T19:24:57.782Z,8.60
2018-10-01T19:27:25.970Z,8.60
2018-10-01T19:29:53.942Z,8.60
2018-10-01T19:32:22.021Z,8.60
2018-10-01T19:34:50.136Z,8.60
2018-10-01T19:37:18.260Z,8.60
2018-10-01T19:39:46.296Z,8.60
2018-10-01T19:42:14.385Z,8.60
2018-10-01T19:44:42.541Z,8.60
2018-10-01T19:47:10.576Z,8.60
2018-10-01T19:49:38.601Z,8.60
2018-10-01T19:52:06.722Z,8.60
2018-10-01T19:54:35.242Z,8.60
2018-10-01T19:57:03.302Z,8.70
2018-10-01T19:59:31.379Z,8.60
2018-10-01T20:01:59.958Z,8.60
2018-10-01T20:04:27.994Z,8.60
2018-10-01T20:06:56.058Z,8.60
2018-10-01T20:09:24.175Z,8.60
2018-10-01T20:11:52.189Z,8.60
2018-10-01T20:14:20.249Z,8.60
2018-10-01T20:16:48.366Z,8.60
2018-10-01T20:19:16.398Z,8.60
2018-10-01T20:21:44.517Z,8.60
2018-10-01T20:24:12.660Z,8.60
2018-10-01T20:26:41.448Z,8.70
2018-10-01T20:29:09.706Z,8.70
2018-10-01T20:31:37.635Z,8.70
2018-10-01T20:34:05.705Z,8.70
2018-10-01T20:36:34.371Z,8.60
2018-10-01T20:39:02.369Z,8.60
2018-10-01T20:41:30.499Z,8.60
2018-10-01T20:43:58.665Z,8.60
2018-10-01T20:46:26.623Z,8.50
2018-10-01T20:48:54.693Z,8.50
2018-10-01T20:51:22.777Z,8.50
2018-10-01T20:53:50.983Z,8.40
2018-10-01T20:56:19.093Z,8.40
2018-10-01T20:58:47.203Z,8.40
2018-10-01T21:01:15.282Z,8.40
2018-10-01T21:03:43.337Z,8.40
2018-10-01T21:06:11.466Z,8.30
2018-10-01T21:08:39.527Z,8.30
2018-10-01T21:11:07.593Z,8.20
2018-10-01T21:13:35.666Z,8.20
2018-10-01T21:16:03.769Z,8.20
2018-10-01T21:18:32.838Z,8.20
2018-10-01T21:21:00.962Z,8.20
2018-10-01T21:23:29.029Z,8.20
2018-10-01T21:25:57.318Z,8.10
2018-10-01T21:28:25.462Z,8.10
2018-10-01T21:30:53.525Z,8.10
2018-10-01T21:33:21.602Z,8.20
2018-10-01T21:35:49.707Z,8.10
2018-10-01T21:38:17.769Z,8.10
2018-10-01T21:40:45.857Z,8.00
2018-10-01T21:43:13.917Z,8.00
2018-10-01T21:45:41.993Z,8.00
2018-10-01T21:48:10.059Z,8.00
2018-10-01T21:50:38.137Z,8.00
2018-10-01T21:53:06.197Z,8.00
2018-10-01T21:55:34.266Z,8.00
2018-10-01T21:58:02.301Z,8.00
2018-10-01T22:00:35.733Z,8.00
2018-10-01T22:03:03.809Z,7.90
2018-10-01T22:05:31.902Z,7.90
2018-10-01T22:07:59.981Z,7.90
2018-10-01T22:10:28.045Z,7.80
2018-10-01T22:12:56.121Z,7.80
2018-10-01T22:15:24.192Z,7.90
2018-10-01T22:17:52.250Z,7.90
2018-10-01T22:20:20.338Z,7.80
2018-10-01T22:22:48.406Z,7.80
2018-10-01T22:25:16.469Z,7.80
2018-10-01T22:30:35.284Z,7.70
2018-10-01T22:33:03.377Z,7.70
2018-10-01T22:35:31.445Z,7.70
2018-10-01T22:37:59.554Z,7.70
2018-10-01T22:40:27.601Z,7.60
2018-10-01T22:42:55.677Z,7.60
2018-10-01T22:45:23.747Z,7.60
2018-10-01T22:47:51.805Z,7.60
2018-10-01T22:50:19.904Z,7.60
2018-10-01T22:52:47.974Z,7.60
2018-10-01T22:55:16.041Z,7.60
2018-10-01T22:57:44.100Z,7.60
2018-10-01T23:00:12.177Z,7.60
2018-10-01T23:02:40.290Z,7.60
2018-10-01T23:05:08.328Z,7.60
2018-10-01T23:07:36.424Z,7.70
2018-10-01T23:10:04.508Z,7.80
2018-10-01T23:12:32.580Z,7.80
2018-10-01T23:15:00.651Z,7.90
2018-10-01T23:17:28.717Z,7.90
2018-10-01T23:19:56.800Z,7.90
2018-10-01T23:22:24.860Z,7.90
2018-10-01T23:24:52.930Z,7.90
2018-10-01T23:27:20.984Z,7.90
2018-10-01T23:29:49.044Z,7.90
2018-10-01T23:32:17.141Z,8.00
2018-10-01T23:34:45.159Z,8.00
2018-10-01T23:37:13.424Z,8.00
2018-10-01T23:39:41.480Z,8.10
2018-10-01T23:42:09.556Z,8.10
2018-10-01T23:44:37.613Z,8.00
2018-10-01T23:47:05.725Z,8.00
2018-10-01T23:49:33.796Z,8.00
2018-10-01T23:52:01.856Z,8.00
2018-10-01T23:54:29.924Z,8.00
2018-10-01T23:56:57.968Z,7.90
2018-10-01T23:59:26.041Z,7.90
